Time;durP1;ratioP1;P1;durP2;ratioP2;P2;SDS_P1;SDS_P2;PMS_P1;PMS_P2;Temp;Humidity;BMP_temperature;BMP_pressure;BME280_temperature;BME280_humidity;BME280_pressure;Samples;Min_cycle;Max_cycle;Signal;HPM_P1;HPM_P2
2023/09/10 00:01:29;;;;;;;16.60;15.23;;;;;;;23.31;77.16;95818.75;5032585;28;20197;-85
2023/09/10 00:03:56;;;;;;;16.95;15.45;;;;;;;23.25;77.69;95828.44;5049134;28;20647;-83
2023/09/10 00:06:22;;;;;;;17.27;15.82;;;;;;;23.18;78.48;95840.97;5049119;28;20226;-85
2023/09/10 00:08:49;;;;;;;16.60;15.20;;;;;;;23.15;78.83;95848.56;5044310;28;20546;-85
2023/09/10 00:11:16;;;;;;;17.33;15.88;;;;;;;23.20;78.51;95840.75;5029817;28;20206;-85
2023/09/10 00:13:43;;;;;;;16.40;15.07;;;;;;;23.30;78.20;95835.56;5029681;28;20202;-85
2023/09/10 00:16:09;;;;;;;17.05;15.45;;;;;;;23.26;77.74;95824.78;5029471;28;20222;-85
2023/09/10 00:18:36;;;;;;;16.70;15.13;;;;;;;23.21;78.20;95837.88;5040578;28;20205;-85
2023/09/10 00:21:02;;;;;;;16.95;15.48;;;;;;;23.13;78.58;95840.94;5050761;28;20222;-85
2023/09/10 00:23:29;;;;;;;16.50;15.07;;;;;;;23.12;78.47;95844.59;5049210;28;20284;-85
2023/09/10 00:25:55;;;;;;;16.08;14.68;;;;;;;23.15;79.00;95843.31;5035681;28;20293;-85
2023/09/10 00:28:23;;;;;;;16.10;14.70;;;;;;;23.17;78.37;95833.34;5028908;28;20696;-84
2023/09/10 00:30:53;;;;;;;17.27;15.30;;;;;;;23.16;78.39;95839.66;5029178;28;20835;-85
2023/09/10 00:33:19;;;;;;;16.77;14.88;;;;;;;23.17;78.26;95825.47;5028281;28;20252;-85
2023/09/10 00:35:45;;;;;;;17.10;15.60;;;;;;;23.12;77.98;95828.84;5048315;28;20236;-84
2023/09/10 00:38:12;;;;;;;15.32;14.02;;;;;;;23.17;78.02;95828.88;5049096;28;20205;-85
2023/09/10 00:40:38;;;;;;;15.98;14.57;;;;;;;23.11;77.90;95839.59;5041191;28;20198;-84
2023/09/10 00:43:05;;;;;;;16.20;14.73;;;;;;;23.01;78.14;95830.59;5020672;28;20289;-84
2023/09/10 00:45:33;;;;;;;15.80;14.27;;;;;;;22.99;79.10;95845.00;5008834;28;20722;-85
2023/09/10 00:48:00;;;;;;;15.57;14.27;;;;;;;22.93;79.52;95854.66;5009612;28;20202;-85
2023/09/10 00:50:26;;;;;;;16.02;14.63;;;;;;;22.94;79.10;95852.81;5027590;28;20201;-85
2023/09/10 00:52:56;;;;;;;16.13;14.68;;;;;;;22.92;79.46;95849.66;5048977;28;20212;-85
2023/09/10 00:55:23;;;;;;;16.38;14.88;;;;;;;22.82;80.04;95865.31;5043582;28;20225;-83
2023/09/10 00:57:51;;;;;;;15.32;14.00;;;;;;;22.84;80.38;95864.03;5029154;28;20667;-85
2023/09/10 01:00:19;;;;;;;16.13;14.73;;;;;;;22.96;79.44;95850.75;5029053;28;20674;-85
2023/09/10 01:02:49;;;;;;;15.93;14.57;;;;;;;22.96;79.39;95853.38;5029242;28;20194;-85
2023/09/10 01:05:17;;;;;;;17.02;15.52;;;;;;;22.95;79.94;95859.66;5028874;28;20238;-84
2023/09/10 01:07:45;;;;;;;15.50;14.20;;;;;;;22.90;80.13;95857.00;5046523;28;20697;-85
2023/09/10 01:10:12;;;;;;;15.85;14.52;;;;;;;22.87;80.35;95868.78;5032262;28;20202;-84
2023/09/10 01:12:49;;;;;;;15.85;14.45;;;;;;;22.83;80.67;95864.28;5029483;28;20201;-85
2023/09/10 01:15:25;;;;;;;15.32;14.02;;;;;;;22.88;80.54;95877.47;5029954;28;20256;-85
2023/09/10 01:17:58;;;;;;;14.95;13.65;;;;;;;22.87;79.82;95866.16;5028589;28;20693;-84
2023/09/10 01:20:39;;;;;;;16.00;14.48;;;;;;;22.78;80.18;95859.75;5029517;28;20209;-85
2023/09/10 01:23:11;;;;;;;16.35;14.85;;;;;;;22.72;80.53;95864.13;5039494;28;20202;-85
2023/09/10 01:25:39;;;;;;;15.70;14.30;;;;;;;22.64;81.28;95880.31;5039180;28;20221;-84
2023/09/10 01:28:05;;;;;;;16.13;14.82;;;;;;;22.61;81.35;95883.44;5029895;28;20213;-85
2023/09/10 01:30:32;;;;;;;15.07;13.77;;;;;;;22.58;81.99;95891.00;5029724;28;20221;-85
2023/09/10 01:33:06;;;;;;;14.65;13.45;;;;;;;22.64;81.65;95888.19;5029813;28;20209;-85
2023/09/10 01:35:42;;;;;;;15.05;13.75;;;;;;;22.64;81.18;95882.16;5029083;28;20225;-85
2023/09/10 01:38:13;;;;;;;15.50;14.02;;;;;;;22.59;81.66;95879.47;5034730;28;20208;-85
2023/09/10 01:40:48;;;;;;;15.32;13.95;;;;;;;22.55;82.09;95879.16;5052116;28;20209;-85
2023/09/10 01:43:15;;;;;;;14.90;13.60;;;;;;;22.58;81.76;95881.28;5040964;28;20205;-85
2023/09/10 01:45:42;;;;;;;15.60;14.02;;;;;;;22.62;81.65;95878.97;5033238;28;20217;-85
2023/09/10 01:48:08;;;;;;;14.93;13.52;;;;;;;22.63;81.52;95881.34;5032751;28;20202;-84
2023/09/10 01:50:35;;;;;;;16.08;14.73;;;;;;;22.62;81.63;95869.25;5033536;28;20281;-85
2023/09/10 01:53:01;;;;;;;15.98;14.60;;;;;;;22.64;81.29;95872.44;5033197;28;20213;-85
2023/09/10 01:55:28;;;;;;;15.02;13.73;;;;;;;22.71;81.28;95869.63;5043914;28;20237;-84
2023/09/10 01:57:56;;;;;;;14.70;13.40;;;;;;;22.62;81.77;95879.75;5053593;28;20216;-85
2023/09/10 02:00:22;;;;;;;14.80;13.32;;;;;;;22.65;81.30;95876.66;5052645;28;20212;-85
2023/09/10 02:02:49;;;;;;;15.45;14.07;;;;;;;22.70;81.10;95881.19;5052162;28;20209;-84
2023/09/10 02:05:15;;;;;;;15.00;13.73;;;;;;;22.59;82.05;95887.34;5053188;28;20225;-85
2023/09/10 02:07:42;;;;;;;14.55;13.30;;;;;;;22.55;82.51;95900.16;5053225;28;20202;-84
2023/09/10 02:10:09;;;;;;;14.38;13.18;;;;;;;22.55;82.32;95902.75;5035897;28;20222;-84
2023/09/10 02:12:36;;;;;;;15.27;13.77;;;;;;;22.55;82.83;95913.25;5052684;28;20330;-84
2023/09/10 02:15:07;;;;;;;15.15;13.82;;;;;;;22.54;83.00;95903.00;5053140;28;20435;-85
2023/09/10 02:17:34;;;;;;;14.90;13.75;;;;;;;22.58;82.18;95901.50;5051910;28;20197;-85
2023/09/10 02:20:00;;;;;;;14.23;13.02;;;;;;;22.62;81.99;95902.59;5053469;28;20247;-84
2023/09/10 02:22:27;;;;;;;15.85;14.45;;;;;;;22.47;82.73;95918.94;5052894;28;20204;-85
2023/09/10 02:24:53;;;;;;;15.48;14.15;;;;;;;22.45;82.76;95918.41;5048448;28;20197;-85
2023/09/10 02:27:19;;;;;;;15.43;13.75;;;;;;;22.47;83.13;95910.28;5040894;28;20805;-84
2023/09/10 02:29:46;;;;;;;15.02;13.68;;;;;;;22.50;82.99;95907.97;5051961;28;20208;-85
2023/09/10 02:32:14;;;;;;;14.30;13.10;;;;;;;22.53;82.79;95910.09;5051844;28;20255;-84
2023/09/10 02:34:40;;;;;;;14.85;13.57;;;;;;;22.47;82.85;95910.28;5021306;28;20829;-84
2023/09/10 02:37:06;;;;;;;15.00;13.68;;;;;;;22.48;82.91;95910.03;5031548;28;20222;-85
2023/09/10 02:39:33;;;;;;;14.88;13.35;;;;;;;22.50;82.70;95910.59;5031804;28;20232;-84
2023/09/10 02:41:59;;;;;;;14.63;13.13;;;;;;;22.56;82.66;95908.81;5029927;28;20937;-84
2023/09/10 02:44:26;;;;;;;13.93;12.73;;;;;;;22.57;82.17;95900.69;5047349;28;20220;-84
2023/09/10 02:46:52;;;;;;;14.32;13.13;;;;;;;22.57;81.54;95890.19;5039411;28;20233;-84
2023/09/10 02:49:20;;;;;;;14.75;13.32;;;;;;;22.60;82.06;95889.72;5030681;28;20268;-84
2023/09/10 02:51:48;;;;;;;14.43;13.23;;;;;;;22.57;81.58;95884.16;5031135;28;20689;-84
2023/09/10 02:54:14;;;;;;;14.13;12.95;;;;;;;22.52;81.82;95892.75;5031283;28;20305;-84
2023/09/10 02:56:41;;;;;;;14.60;13.35;;;;;;;22.47;82.05;95899.78;5030776;28;20424;-85
2023/09/10 02:59:07;;;;;;;14.55;13.32;;;;;;;22.40;82.20;95903.38;5035444;28;20217;-84
2023/09/10 03:01:34;;;;;;;14.07;12.75;;;;;;;22.33;82.89;95909.81;5050978;28;20296;-84
2023/09/10 03:04:00;;;;;;;14.02;12.73;;;;;;;22.29;82.65;95914.78;5050630;28;20197;-84
2023/09/10 03:06:28;;;;;;;14.13;13.00;;;;;;;22.16;83.38;95928.22;5050751;28;20229;-85
2023/09/10 03:08:54;;;;;;;13.32;12.13;;;;;;;22.15;83.24;95926.63;5045270;28;20225;-84
2023/09/10 03:11:21;;;;;;;14.32;13.13;;;;;;;21.95;83.93;95924.47;5030827;28;20198;-84
2023/09/10 03:13:47;;;;;;;13.63;12.55;;;;;;;21.97;84.05;95932.88;5031563;28;20206;-85
2023/09/10 03:16:14;;;;;;;14.00;12.90;;;;;;;21.91;84.42;95944.34;5043062;28;20225;-84
2023/09/10 03:18:40;;;;;;;13.55;12.35;;;;;;;21.96;84.17;95941.78;5049865;28;20619;-84
2023/09/10 03:21:07;;;;;;;13.27;12.07;;;;;;;22.01;84.13;95933.25;5050906;28;20259;-85
2023/09/10 03:23:34;;;;;;;12.88;11.88;;;;;;;22.05;83.53;95927.28;5050561;28;20288;-85
2023/09/10 03:26:01;;;;;;;13.27;12.18;;;;;;;22.12;83.31;95914.03;5036800;28;20582;-85
2023/09/10 03:28:27;;;;;;;13.27;12.20;;;;;;;22.12;82.90;95921.88;5030753;28;20206;-85
2023/09/10 03:30:57;;;;;;;13.05;11.95;;;;;;;22.07;82.94;95910.53;5021456;28;20198;-85
2023/09/10 03:33:23;;;;;;;13.60;12.40;;;;;;;22.08;83.01;95914.72;5050349;28;20641;-84
2023/09/10 03:35:50;;;;;;;13.35;12.18;;;;;;;22.04;82.79;95909.16;5050707;28;20248;-84
2023/09/10 03:38:16;;;;;;;12.65;11.55;;;;;;;21.99;83.05;95915.09;5050056;28;20209;-85
2023/09/10 03:40:44;;;;;;;13.13;12.13;;;;;;;21.96;83.48;95926.06;5049745;28;20205;-85
2023/09/10 03:43:10;;;;;;;12.93;11.85;;;;;;;21.98;82.85;95907.47;5038832;28;20570;-84
2023/09/10 03:45:37;;;;;;;13.27;12.27;;;;;;;21.94;82.91;95909.75;5030573;28;20230;-85
2023/09/10 03:48:04;;;;;;;13.18;12.07;;;;;;;21.90;83.13;95916.53;5039035;28;20197;-85
2023/09/10 03:50:30;;;;;;;13.50;12.30;;;;;;;21.96;82.79;95902.47;5050257;28;20213;-85
2023/09/10 03:52:57;;;;;;;12.75;11.65;;;;;;;22.00;82.24;95902.81;5049689;28;20575;-85
2023/09/10 03:55:23;;;;;;;13.32;12.23;;;;;;;22.01;82.05;95899.16;5049951;28;20792;-85
2023/09/10 03:57:51;;;;;;;12.80;11.60;;;;;;;22.01;82.00;95901.78;5049788;28;20223;-85
2023/09/10 04:00:19;;;;;;;13.25;12.15;;;;;;;22.02;82.27;95898.91;5050095;28;20208;-84
2023/09/10 04:02:45;;;;;;;13.65;12.30;;;;;;;21.97;81.88;95896.19;5048977;28;20205;-84
2023/09/10 04:05:12;;;;;;;12.77;11.65;;;;;;;21.99;82.02;95888.88;5047614;28;20217;-84
2023/09/10 04:07:39;;;;;;;12.82;11.73;;;;;;;22.00;81.76;95900.97;5049924;28;20243;-85
2023/09/10 04:10:07;;;;;;;12.65;11.55;;;;;;;21.97;81.68;95893.56;5034161;28;20198;-84
2023/09/10 04:12:34;;;;;;;13.00;11.73;;;;;;;22.00;81.68;95902.81;5030190;28;20275;-84
2023/09/10 04:15:01;;;;;;;12.32;11.32;;;;;;;21.96;81.96;95899.84;5030497;28;20218;-84
2023/09/10 04:17:29;;;;;;;12.60;11.63;;;;;;;21.88;82.18;95902.09;5028976;28;20226;-84
2023/09/10 04:19:57;;;;;;;13.10;12.07;;;;;;;21.78;82.78;95920.25;5035640;28;20657;-85
2023/09/10 04:22:24;;;;;;;12.75;11.85;;;;;;;21.72;83.02;95922.03;5049944;28;20685;-85
2023/09/10 04:24:50;;;;;;;12.48;11.48;;;;;;;21.67;83.00;95930.59;5045882;28;20209;-84
2023/09/10 04:27:17;;;;;;;13.00;11.90;;;;;;;21.70;82.63;95926.72;5023578;28;20195;-84
2023/09/10 04:29:44;;;;;;;11.95;11.05;;;;;;;21.70;82.53;95922.25;5028061;28;20202;-84
2023/09/10 04:32:11;;;;;;;12.82;11.82;;;;;;;21.66;82.36;95909.88;5029635;28;20202;-84
2023/09/10 04:34:38;;;;;;;12.30;11.20;;;;;;;21.59;82.70;95923.09;5029661;28;20205;-85
2023/09/10 04:37:04;;;;;;;12.15;11.15;;;;;;;21.45;83.94;95949.84;5042632;28;20236;-85
2023/09/10 04:39:31;;;;;;;13.13;11.80;;;;;;;21.42;84.03;95953.75;5049604;28;20267;-85
2023/09/10 04:41:58;;;;;;;12.85;11.75;;;;;;;21.47;83.93;95951.22;5031737;28;20225;-85
2023/09/10 04:44:24;;;;;;;12.07;11.07;;;;;;;21.45;84.24;95948.03;5030009;28;20198;-84
2023/09/10 04:46:50;;;;;;;13.70;12.40;;;;;;;21.40;84.53;95957.63;5029937;28;20218;-85
2023/09/10 04:49:18;;;;;;;12.93;11.82;;;;;;;21.45;84.77;95963.75;5030052;28;20204;-84
2023/09/10 04:51:44;;;;;;;12.77;11.77;;;;;;;21.53;84.66;95967.84;5032262;28;20212;-84
2023/09/10 04:54:11;;;;;;;12.45;11.45;;;;;;;21.60;84.34;95966.63;5050053;28;20209;-84
2023/09/10 04:56:37;;;;;;;13.73;12.48;;;;;;;21.57;84.37;95956.63;5050354;28;20221;-84
2023/09/10 04:59:04;;;;;;;12.73;11.63;;;;;;;21.50;84.96;95969.09;5050704;28;20205;-85
2023/09/10 05:01:30;;;;;;;12.23;11.18;;;;;;;21.62;84.13;95967.19;5049785;28;20682;-85
2023/09/10 05:03:57;;;;;;;12.18;11.27;;;;;;;21.62;84.06;95964.56;5049826;28;20211;-84
2023/09/10 05:06:24;;;;;;;12.48;11.38;;;;;;;21.63;83.55;95960.94;5050253;28;20233;-85
2023/09/10 05:08:51;;;;;;;12.80;11.80;;;;;;;21.69;83.58;95967.84;5045053;28;20225;-83
2023/09/10 05:11:18;;;;;;;12.73;11.50;;;;;;;21.67;83.56;95963.88;5049993;28;20208;-84
2023/09/10 05:13:44;;;;;;;13.30;12.10;;;;;;;21.63;83.03;95955.69;5049927;28;20254;-84
2023/09/10 05:16:11;;;;;;;12.57;11.57;;;;;;;21.61;84.09;95970.84;5049970;28;20241;-84
2023/09/10 05:18:37;;;;;;;12.13;11.13;;;;;;;21.56;83.85;95973.38;5049211;28;20201;-84
2023/09/10 05:21:03;;;;;;;12.80;11.70;;;;;;;21.57;84.44;95982.03;5049425;28;20201;-84
2023/09/10 05:23:34;;;;;;;12.82;11.73;;;;;;;21.60;84.52;95989.44;5021473;28;20556;-84
2023/09/10 05:26:03;;;;;;;12.45;11.45;;;;;;;21.69;84.21;95986.19;5048276;28;20225;-85
2023/09/10 05:28:29;;;;;;;12.80;11.80;;;;;;;21.63;85.43;96005.47;5049873;28;20194;-85
2023/09/10 05:30:56;;;;;;;11.80;10.80;;;;;;;21.75;85.17;96004.63;5049713;28;20212;-84
2023/09/10 05:33:22;;;;;;;12.20;11.10;;;;;;;21.86;84.50;95982.78;5049353;28;20552;-84
2023/09/10 05:35:54;;;;;;;11.88;10.98;;;;;;;21.89;85.04;96005.94;5049282;28;20762;-84
2023/09/10 05:38:21;;;;;;;12.45;11.35;;;;;;;21.93;85.24;96001.81;5029410;28;20657;-84
2023/09/10 05:40:49;;;;;;;12.40;11.20;;;;;;;21.95;85.17;95999.72;5035875;28;20198;-84
2023/09/10 05:43:15;;;;;;;12.02;11.13;;;;;;;22.05;85.33;96005.97;5036575;28;20210;-85
2023/09/10 05:45:41;;;;;;;12.48;11.38;;;;;;;22.13;85.28;96007.38;5028805;28;20230;-85
2023/09/10 05:48:08;;;;;;;12.10;11.10;;;;;;;22.19;85.28;96009.06;5029338;28;20198;-85
2023/09/10 05:50:34;;;;;;;11.25;10.25;;;;;;;22.22;84.90;95999.91;5028805;28;20683;-84
2023/09/10 05:53:01;;;;;;;12.48;11.57;;;;;;;22.31;84.74;96004.53;5028281;28;20194;-85
2023/09/10 05:55:27;;;;;;;12.40;11.40;;;;;;;22.36;85.08;95995.94;5028926;28;20222;-84
2023/09/10 05:57:55;;;;;;;12.10;11.20;;;;;;;22.48;84.31;95987.97;5028860;28;20222;-84
2023/09/10 06:00:22;;;;;;;12.38;11.30;;;;;;;22.53;84.04;95985.41;5029477;28;20206;-84
2023/09/10 06:02:50;;;;;;;12.27;11.27;;;;;;;22.58;84.61;95995.97;5029395;28;20229;-84
2023/09/10 06:05:16;;;;;;;12.18;11.18;;;;;;;22.66;83.96;95999.00;5029247;28;20236;-84
2023/09/10 06:07:43;;;;;;;12.48;11.57;;;;;;;22.66;84.10;95982.47;5029573;28;20210;-84
2023/09/10 06:10:10;;;;;;;11.77;10.88;;;;;;;22.73;84.06;95988.31;5029403;28;20198;-85
2023/09/10 06:12:37;;;;;;;12.38;11.27;;;;;;;22.82;83.80;95991.34;5028930;28;20237;-84
2023/09/10 06:15:07;;;;;;;12.75;11.75;;;;;;;22.89;83.75;95994.59;5028801;28;20280;-84
2023/09/10 06:17:33;;;;;;;12.48;11.48;;;;;;;22.97;83.55;95994.94;5028247;28;20804;-84
2023/09/10 06:20:00;;;;;;;12.55;11.57;;;;;;;22.97;83.38;95989.69;5040946;28;20202;-84
2023/09/10 06:22:26;;;;;;;11.10;10.20;;;;;;;23.04;83.27;95990.31;5048868;28;20209;-84
2023/09/10 06:24:53;;;;;;;12.32;11.30;;;;;;;23.11;82.99;95990.13;5047868;28;20678;-84
2023/09/10 06:27:19;;;;;;;11.85;10.93;;;;;;;23.21;83.08;95981.56;5032085;28;20202;-85
2023/09/10 06:29:46;;;;;;;12.57;11.57;;;;;;;23.28;82.52;95979.56;5032324;28;20822;-84
2023/09/10 06:32:14;;;;;;;12.40;11.27;;;;;;;23.37;83.00;95981.50;5032111;28;20210;-84
2023/09/10 06:34:40;;;;;;;11.55;10.55;;;;;;;23.49;81.72;95968.19;5023588;28;20201;-84
2023/09/10 06:37:07;;;;;;;11.55;10.65;;;;;;;23.60;81.14;95951.53;5051425;28;20233;-84
2023/09/10 06:39:38;;;;;;;12.30;11.30;;;;;;;23.73;80.37;95940.59;5051702;28;20694;-85
2023/09/10 06:42:05;;;;;;;12.75;11.65;;;;;;;23.87;79.66;95916.47;5049278;28;20202;-85
2023/09/10 06:44:32;;;;;;;12.82;11.77;;;;;;;24.00;78.59;95908.19;5031290;28;20676;-84
2023/09/10 06:46:58;;;;;;;12.02;11.02;;;;;;;24.14;78.40;95892.75;5031664;28;20226;-85
2023/09/10 06:49:26;;;;;;;11.63;10.73;;;;;;;24.27;78.18;95889.69;5031481;28;20264;-84
2023/09/10 06:51:52;;;;;;;10.73;10.02;;;;;;;24.44;77.67;95883.19;5043358;28;20209;-84
2023/09/10 06:54:19;;;;;;;11.70;10.70;;;;;;;24.55;76.48;95865.63;5050799;28;20343;-84
2023/09/10 06:56:45;;;;;;;12.25;11.23;;;;;;;24.69;75.38;95843.00;5051373;28;20225;-85
2023/09/10 06:59:11;;;;;;;11.35;10.50;;;;;;;24.79;75.56;95842.25;5051104;28;20208;-84
2023/09/10 07:01:38;;;;;;;11.70;10.75;;;;;;;24.94;74.96;95829.16;5050959;28;20205;-85
2023/09/10 07:04:16;;;;;;;12.10;10.93;;;;;;;25.09;74.14;95818.63;5050912;28;20255;-85
2023/09/10 07:06:44;;;;;;;11.68;10.68;;;;;;;25.23;73.44;95800.44;5046998;28;20272;-84
2023/09/10 07:09:11;;;;;;;11.38;10.55;;;;;;;25.35;72.85;95787.00;5050175;28;20202;-85
2023/09/10 07:11:37;;;;;;;11.57;10.68;;;;;;;25.49;72.24;95769.59;5051118;28;20202;-84
2023/09/10 07:14:03;;;;;;;12.35;11.05;;;;;;;25.52;71.47;95747.97;5045584;28;20578;-84
2023/09/10 07:16:30;;;;;;;12.75;11.85;;;;;;;25.55;71.98;95765.91;5022351;28;20210;-84
2023/09/10 07:18:56;;;;;;;11.93;11.02;;;;;;;25.65;71.86;95757.19;5029984;28;20226;-85
2023/09/10 07:21:23;;;;;;;11.10;10.20;;;;;;;25.88;70.77;95729.44;5030107;28;20206;-85
2023/09/10 07:23:50;;;;;;;12.00;10.95;;;;;;;26.11;68.99;95699.78;5039540;28;20202;-84
2023/09/10 07:26:17;;;;;;;11.85;11.00;;;;;;;26.23;67.42;95654.59;5034586;28;20230;-84
2023/09/10 07:28:43;;;;;;;11.13;10.32;;;;;;;26.41;67.20;95652.13;5027911;28;20214;-84
2023/09/10 07:31:10;;;;;;;11.75;10.70;;;;;;;26.54;66.70;95640.16;4999541;28;20238;-85
2023/09/10 07:33:36;;;;;;;11.77;10.80;;;;;;;26.72;67.09;95662.47;5009944;28;20210;-85
2023/09/10 07:36:03;;;;;;;11.40;10.50;;;;;;;26.83;66.80;95633.03;5010005;28;20222;-85
2023/09/10 07:38:29;;;;;;;11.50;10.63;;;;;;;26.99;65.68;95609.13;5010379;28;20222;-84
2023/09/10 07:40:57;;;;;;;11.27;10.38;;;;;;;27.20;64.71;95585.94;5049366;28;20690;-85
2023/09/10 07:43:26;;;;;;;11.32;10.43;;;;;;;27.27;63.19;95542.22;5036578;28;20202;-85
2023/09/10 07:45:52;;;;;;;10.52;9.63;;;;;;;27.39;63.48;95536.53;5030173;28;20762;-84
2023/09/10 07:48:19;;;;;;;10.88;10.07;;;;;;;27.54;63.04;95525.75;5030194;28;20655;-85
2023/09/10 07:50:54;;;;;;;11.07;10.25;;;;;;;27.68;61.70;95492.25;5029829;28;20209;-85
2023/09/10 07:53:21;;;;;;;24.10;22.13;;;;;;;27.84;61.84;95472.44;5029647;28;20266;-84
2023/09/10 07:55:47;;;;;;;15.05;13.85;;;;;;;27.96;61.33;95468.53;5036718;28;20236;-84
2023/09/10 07:58:15;;;;;;;11.35;10.43;;;;;;;28.10;60.91;95462.22;5049159;28;20229;-85
2023/09/10 08:00:41;;;;;;;10.30;9.60;;;;;;;28.24;59.95;95417.28;5049253;28;20201;-85
2023/09/10 08:03:08;;;;;;;10.30;9.50;;;;;;;28.42;59.53;95410.34;5049321;28;20204;-85
2023/09/10 08:05:35;;;;;;;10.60;9.80;;;;;;;28.36;58.06;95340.00;5049255;28;20318;-85
2023/09/10 08:08:03;;;;;;;10.68;9.88;;;;;;;28.51;57.69;95329.09;5049561;28;20194;-85
2023/09/10 08:10:29;;;;;;;10.02;9.27;;;;;;;28.43;56.46;95258.28;5030071;28;20201;-85
2023/09/10 08:12:56;;;;;;;9.25;8.65;;;;;;;28.54;56.19;95239.22;5042090;28;20209;-85
2023/09/10 08:15:24;;;;;;;9.32;8.63;;;;;;;28.76;55.75;95238.47;5049234;28;20224;-85
2023/09/10 08:17:51;;;;;;;10.02;9.32;;;;;;;28.93;55.18;95219.28;5048431;28;20278;-84
2023/09/10 08:20:18;;;;;;;10.20;9.40;;;;;;;28.97;55.33;95225.56;5049293;28;20212;-85
2023/09/10 08:22:44;;;;;;;41.58;37.95;;;;;;;29.13;55.44;95226.75;5049257;28;20206;-85
2023/09/10 08:25:11;;;;;;;19.10;17.70;;;;;;;29.36;55.18;95240.00;5038782;28;20199;-85
2023/09/10 08:27:37;;;;;;;9.93;9.13;;;;;;;29.32;54.35;95184.09;5020062;28;20202;-85
2023/09/10 08:30:10;;;;;;;9.15;8.45;;;;;;;29.53;53.85;95185.19;5048517;28;20576;-85
2023/09/10 08:32:38;;;;;;;9.90;9.10;;;;;;;29.51;53.25;95147.56;5048789;28;20229;-85
2023/09/10 08:35:05;;;;;;;9.48;8.77;;;;;;;29.74;53.49;95161.53;5048566;28;20201;-85
2023/09/10 08:37:32;;;;;;;10.13;9.32;;;;;;;29.83;51.68;95069.41;5048759;28;20342;-85
2023/09/10 08:39:58;;;;;;;17.90;16.50;;;;;;;29.95;51.78;95081.31;5048510;28;20193;-85
2023/09/10 08:42:31;;;;;;;10.38;9.68;;;;;;;30.00;51.79;95052.78;5042973;28;20568;-84
2023/09/10 08:45:01;;;;;;;9.73;9.05;;;;;;;30.09;50.66;95023.53;5041280;28;20232;-84
2023/09/10 08:47:31;;;;;;;8.75;7.90;;;;;;;30.30;50.58;94997.13;5048254;28;20197;-84
2023/09/10 08:50:06;;;;;;;8.70;8.00;;;;;;;30.35;48.89;94933.97;5048695;28;20205;-84
2023/09/10 08:52:35;;;;;;;8.27;7.65;;;;;;;30.26;49.92;94956.34;5048526;28;20197;-84
2023/09/10 08:55:02;;;;;;;8.05;7.55;;;;;;;30.29;49.20;94913.22;5048374;28;20236;-85
2023/09/10 08:57:31;;;;;;;7.95;7.35;;;;;;;30.54;49.06;94926.41;5048637;28;20707;-85
2023/09/10 08:59:58;;;;;;;8.38;7.60;;;;;;;30.68;48.45;94917.47;5044987;28;20662;-85
2023/09/10 09:02:25;;;;;;;7.78;7.18;;;;;;;30.77;49.46;94944.81;5048257;28;20205;-85
2023/09/10 09:04:51;;;;;;;8.40;7.80;;;;;;;30.93;48.82;94903.28;5048557;28;20224;-84
2023/09/10 09:07:22;;;;;;;7.97;7.28;;;;;;;31.04;47.73;94866.44;5037643;28;20233;-85
2023/09/10 09:09:54;;;;;;;7.88;7.25;;;;;;;30.99;46.97;94813.44;5013206;28;20264;-85
2023/09/10 09:12:21;;;;;;;7.65;7.03;;;;;;;30.95;46.25;94768.13;5009004;28;20206;-85
2023/09/10 09:14:49;;;;;;;7.18;6.63;;;;;;;30.90;45.21;94745.16;5008481;28;20206;-85
2023/09/10 09:17:16;;;;;;;8.45;7.63;;;;;;;30.95;45.19;94748.72;5039388;28;20261;-84
2023/09/10 09:19:43;;;;;;;8.10;7.50;;;;;;;30.86;45.38;94754.88;5048280;28;20236;-85
2023/09/10 09:22:12;;;;;;;7.63;7.03;;;;;;;31.01;45.80;94808.56;5038255;28;20209;-85
2023/09/10 09:24:41;;;;;;;7.55;6.85;;;;;;;31.12;46.55;94831.06;5015767;28;20285;-85
2023/09/10 09:27:10;;;;;;;8.10;7.50;;;;;;;31.31;46.50;94823.38;5008526;28;20227;-84
2023/09/10 09:29:38;;;;;;;7.75;7.15;;;;;;;31.25;45.80;94782.91;5008621;28;20198;-85
2023/09/10 09:32:05;;;;;;;8.35;7.65;;;;;;;31.48;45.35;94787.84;5018798;28;20205;-85
2023/09/10 09:34:33;;;;;;;8.30;7.60;;;;;;;31.44;45.34;94747.81;5047904;28;20703;-85
2023/09/10 09:36:59;;;;;;;8.52;7.22;;;;;;;31.48;45.90;94785.19;5047824;28;20254;-85
2023/09/10 09:39:26;;;;;;;8.15;7.53;;;;;;;31.64;45.34;94788.78;5046238;28;20221;-85
2023/09/10 09:41:54;;;;;;;8.48;7.75;;;;;;;31.65;44.95;94758.41;5027998;28;20198;-85
2023/09/10 09:44:21;;;;;;;7.47;6.88;;;;;;;31.71;45.39;94777.63;5027833;28;20663;-84
2023/09/10 09:46:48;;;;;;;7.20;6.70;;;;;;;31.54;43.99;94669.47;5027966;28;20745;-85
2023/09/10 09:49:14;;;;;;;7.13;6.40;;;;;;;31.63;44.51;94733.22;5039374;28;20642;-85
2023/09/10 09:51:41;;;;;;;6.63;6.13;;;;;;;31.66;44.04;94682.78;5047359;28;20198;-85
2023/09/10 09:54:08;;;;;;;7.18;6.68;;;;;;;31.62;43.89;94681.09;5047700;28;20205;-84
2023/09/10 09:56:36;;;;;;;6.82;6.30;;;;;;;31.72;44.08;94696.66;5048296;28;20245;-85
2023/09/10 09:59:04;;;;;;;7.70;6.88;;;;;;;31.90;43.81;94685.47;5051330;28;20217;-85
2023/09/10 10:01:34;;;;;;;7.15;6.55;;;;;;;31.99;43.05;94644.63;5051823;28;20213;-85
2023/09/10 10:04:00;;;;;;;6.88;6.10;;;;;;;31.78;42.26;94576.28;5037258;28;20194;-85
2023/09/10 10:06:27;;;;;;;6.43;5.78;;;;;;;31.38;42.47;94568.19;5050973;28;20237;-85
2023/09/10 10:08:54;;;;;;;6.22;5.72;;;;;;;31.48;42.27;94602.38;5045673;28;20202;-85
2023/09/10 10:11:30;;;;;;;7.55;6.40;;;;;;;31.51;42.20;94600.91;5031813;28;20195;-85
2023/09/10 10:13:58;;;;;;;6.35;5.88;;;;;;;31.38;41.95;94578.06;5031222;28;20570;-85
2023/09/10 10:16:27;;;;;;;7.53;5.88;;;;;;;31.44;43.27;94661.88;5031244;28;20222;-84
2023/09/10 10:18:54;;;;;;;7.00;6.40;;;;;;;31.60;43.13;94665.44;5030695;28;20218;-85
2023/09/10 10:21:22;;;;;;;7.15;6.45;;;;;;;31.72;43.85;94688.69;5041382;28;20576;-85
2023/09/10 10:23:48;;;;;;;6.97;6.40;;;;;;;31.73;43.10;94658.28;5051027;28;20201;-85
2023/09/10 10:26:17;;;;;;;6.13;5.20;;;;;;;31.58;41.83;94547.91;5035649;28;20225;-84
2023/09/10 10:28:48;;;;;;;6.88;5.90;;;;;;;31.57;41.31;94538.34;5030977;28;20947;-85
2023/09/10 10:31:18;;;;;;;5.82;5.00;;;;;;;31.50;40.75;94525.63;5031694;28;20267;-85
2023/09/10 10:33:51;;;;;;;5.45;4.95;;;;;;;31.40;40.80;94493.38;5031888;28;20767;-85
2023/09/10 10:36:31;;;;;;;6.57;5.88;;;;;;;31.31;40.82;94525.44;5032313;28;20886;-85
2023/09/10 10:38:57;;;;;;;7.13;5.65;;;;;;;31.41;42.12;94583.50;5051893;28;20252;-85
2023/09/10 10:41:26;;;;;;;5.90;5.40;;;;;;;31.54;42.12;94606.34;5033796;28;20194;-85
2023/09/10 10:44:02;;;;;;;8.45;5.38;;;;;;;31.51;41.50;94558.34;5032201;28;20504;-85
2023/09/10 10:46:30;;;;;;;5.60;5.10;;;;;;;31.48;41.90;94569.66;5031173;28;20222;-84
2023/09/10 10:48:59;;;;;;;6.43;5.90;;;;;;;31.50;41.79;94578.06;5030652;28;20574;-85
2023/09/10 10:51:26;;;;;;;6.82;5.60;;;;;;;31.34;41.38;94519.44;5030941;28;20210;-85
2023/09/10 10:53:53;;;;;;;6.18;5.68;;;;;;;31.28;42.08;94579.28;5042740;28;20672;-85
2023/09/10 10:56:20;;;;;;;6.28;5.72;;;;;;;31.24;42.54;94595.13;5050998;28;20233;-85
2023/09/10 10:58:47;;;;;;;7.45;5.78;;;;;;;31.04;41.95;94573.91;5048734;28;20887;-85
2023/09/10 11:01:13;;;;;;;6.40;5.88;;;;;;;31.02;42.81;94631.97;5022143;28;20289;-85
2023/09/10 11:03:40;;;;;;;6.35;5.85;;;;;;;31.01;43.74;94681.72;5030489;28;20202;-85
2023/09/10 11:06:08;;;;;;;6.15;5.65;;;;;;;31.06;43.14;94638.97;5030337;28;20226;-85
2023/09/10 11:08:36;;;;;;;7.90;5.85;;;;;;;30.99;43.12;94617.44;5030547;28;20578;-85
2023/09/10 11:11:04;;;;;;;6.35;5.85;;;;;;;30.97;42.96;94640.94;5050373;28;20852;-85
2023/09/10 11:13:31;;;;;;;7.95;5.95;;;;;;;30.90;43.24;94633.50;5049699;28;20209;-86
2023/09/10 11:16:17;;;;;;;6.45;5.95;;;;;;;30.74;42.29;94578.63;5030470;28;20633;-85
2023/09/10 11:18:44;;;;;;;6.18;5.68;;;;;;;30.85;42.35;94550.50;5029758;28;20229;-85
2023/09/10 11:21:13;;;;;;;6.07;5.47;;;;;;;30.80;42.38;94569.31;5030435;28;20225;-85
2023/09/10 11:23:41;;;;;;;6.32;5.72;;;;;;;30.87;43.50;94634.16;5030154;28;20572;-85